Аэропорт: Оренбург-Центральный. Оренбург

ICAO: UWOO

METAR:
2020-08-12 06:30:00
UWOO 120630Z 01005MPS 330V040 9999 SCT040 21/10 Q1009 R26/CLRD65 NOSIG RMK QFE746/0995
METAR:
2020-08-12 04:43:00
TAF UWOO 120443Z 1206/1306 35007G14MPS 9999 BKN030 TX24/1212Z TN10/1301Z TEMPO 1206/1306 02003G08MPS